createdAt,value
2022-09-22T00:02:04.288Z,4.43
2022-09-22T00:04:30.582Z,4.82
2022-09-22T00:06:57.418Z,5.50
2022-09-22T00:09:23.717Z,4.80
2022-09-22T00:11:50.966Z,5.75
2022-09-22T00:14:27.262Z,4.60
2022-09-22T00:16:54.871Z,4.72
2022-09-22T00:19:22.471Z,4.72
2022-09-22T00:21:49.127Z,5.53
2022-09-22T00:24:16.321Z,4.80
2022-09-22T00:26:43.154Z,6.28
2022-09-22T00:29:10.061Z,4.68
2022-09-22T00:31:37.685Z,4.50
2022-09-22T00:34:04.592Z,8.10
2022-09-22T00:36:31.100Z,4.85
2022-09-22T00:38:58.149Z,5.05
2022-09-22T00:41:29.549Z,4.97
2022-09-22T00:44:15.262Z,4.25
2022-09-22T00:46:42.695Z,5.50
2022-09-22T00:49:09.502Z,4.60
2022-09-22T00:51:38.205Z,4.60
2022-09-22T00:54:06.904Z,4.60
2022-09-22T00:56:39.803Z,4.70
2022-09-22T00:59:08.694Z,5.03
2022-09-22T01:01:36.681Z,5.93
2022-09-22T01:04:03.697Z,4.28
2022-09-22T01:06:30.914Z,5.00
2022-09-22T01:08:57.401Z,4.13
2022-09-22T01:11:25.162Z,4.60
2022-09-22T01:13:55.513Z,5.05
2022-09-22T01:16:24.651Z,5.10
2022-09-22T01:18:50.940Z,4.22
2022-09-22T01:21:20.365Z,4.47
2022-09-22T01:23:56.660Z,4.60
2022-09-22T01:26:31.218Z,4.22
2022-09-22T01:29:14.365Z,5.18
2022-09-22T01:31:52.990Z,4.57
2022-09-22T01:34:28.874Z,4.47
2022-09-22T01:36:59.375Z,4.32
2022-09-22T01:41:54.715Z,4.38
2022-09-22T01:44:39.824Z,4.97
2022-09-22T01:47:27.028Z,5.63
2022-09-22T01:49:55.718Z,4.78
2022-09-22T01:52:25.462Z,5.05
2022-09-22T01:54:54.777Z,4.28
2022-09-22T01:57:30.016Z,5.20
2022-09-22T01:59:59.744Z,5.10
2022-09-22T02:02:30.018Z,5.65
2022-09-22T02:07:31.014Z,4.65
2022-09-22T02:09:59.766Z,5.03
2022-09-22T02:12:26.079Z,4.90
2022-09-22T02:14:53.258Z,4.45
2022-09-22T02:17:19.754Z,3.88
2022-09-22T02:19:45.996Z,4.32
2022-09-22T02:22:12.354Z,4.30
2022-09-22T02:24:39.902Z,4.38
2022-09-22T02:27:35.562Z,4.60
2022-09-22T02:30:03.294Z,4.22
2022-09-22T02:32:29.953Z,5.07
2022-09-22T02:34:56.312Z,5.35
2022-09-22T02:37:34.784Z,4.10
2022-09-22T02:40:04.242Z,4.13
2022-09-22T02:42:33.462Z,4.80
2022-09-22T02:45:08.194Z,4.30
2022-09-22T02:47:43.171Z,4.93
2022-09-22T02:50:10.848Z,4.88
2022-09-22T02:52:38.573Z,5.55
2022-09-22T02:55:05.661Z,4.75
2022-09-22T02:57:31.902Z,5.85
2022-09-22T02:59:58.155Z,4.55
2022-09-22T03:02:24.532Z,4.38
2022-09-22T03:04:51.614Z,4.88
2022-09-22T03:07:18.506Z,4.63
2022-09-22T03:09:44.771Z,4.57
2022-09-22T03:12:11.098Z,6.05
2022-09-22T03:14:37.355Z,5.00
2022-09-22T03:17:03.639Z,4.57
2022-09-22T03:19:29.898Z,4.75
2022-09-22T03:21:56.168Z,4.53
2022-09-22T03:24:22.430Z,4.05
2022-09-22T03:26:48.709Z,4.07
2022-09-22T03:29:14.953Z,4.20
2022-09-22T03:31:41.198Z,5.43
2022-09-22T03:34:07.450Z,4.13
2022-09-22T03:36:34.044Z,4.57
2022-09-22T03:39:00.404Z,5.00
2022-09-22T03:41:26.796Z,4.03
2022-09-22T03:43:53.494Z,4.45
2022-09-22T03:46:20.866Z,3.92
2022-09-22T03:48:47.271Z,4.28
2022-09-22T03:51:13.545Z,4.65
2022-09-22T03:53:39.804Z,5.00
2022-09-22T03:56:13.760Z,5.35
2022-09-22T03:58:40.335Z,5.30
2022-09-22T04:01:07.219Z,4.80
2022-09-22T04:03:33.960Z,4.70
2022-09-22T04:06:00.506Z,4.55
2022-09-22T04:08:26.933Z,5.28
2022-09-22T04:10:53.302Z,6.15
2022-09-22T04:13:19.583Z,4.57
2022-09-22T04:15:46.259Z,4.97
2022-09-22T04:18:13.770Z,5.55
2022-09-22T04:20:43.708Z,5.75
2022-09-22T04:23:10.546Z,4.85
2022-09-22T04:25:36.929Z,4.63
2022-09-22T04:28:05.672Z,5.93
2022-09-22T04:30:32.264Z,5.30
2022-09-22T04:32:59.781Z,4.57
2022-09-22T04:35:28.240Z,5.30
2022-09-22T04:37:55.557Z,5.22
2022-09-22T04:40:22.312Z,4.88
2022-09-22T04:42:49.122Z,5.55
2022-09-22T04:45:16.534Z,4.57
2022-09-22T04:47:49.835Z,4.68
2022-09-22T04:50:16.803Z,5.10
2022-09-22T04:52:46.703Z,6.00
2022-09-22T04:55:13.294Z,5.57
2022-09-22T04:57:39.576Z,5.85
2022-09-22T05:00:06.325Z,5.70
2022-09-22T05:02:33.915Z,6.30
2022-09-22T05:05:00.190Z,6.65
2022-09-22T05:07:26.513Z,5.65
2022-09-22T05:09:52.794Z,5.85
2022-09-22T05:12:20.348Z,5.80
2022-09-22T05:14:46.650Z,5.53
2022-09-22T05:17:13.050Z,5.35
2022-09-22T05:19:39.315Z,5.90
2022-09-22T05:22:05.554Z,5.90
2022-09-22T05:24:32.374Z,8.85
2022-09-22T05:26:59.154Z,7.38
2022-09-22T05:29:27.901Z,7.97
2022-09-22T05:31:54.443Z,6.75
2022-09-22T05:34:20.743Z,7.80
2022-09-22T05:36:46.977Z,8.10
2022-09-22T05:39:13.331Z,7.95
2022-09-22T05:41:39.586Z,8.85
2022-09-22T05:44:05.854Z,9.95
2022-09-22T05:46:32.157Z,8.90
2022-09-22T05:48:58.418Z,9.32
2022-09-22T05:51:24.650Z,8.48
2022-09-22T05:53:52.025Z,8.27
2022-09-22T05:56:18.305Z,8.90
2022-09-22T05:58:46.540Z,7.85
2022-09-22T06:01:12.839Z,7.50
2022-09-22T06:03:39.196Z,9.15
2022-09-22T06:06:05.546Z,5.80
2022-09-22T06:08:31.805Z,6.35
2022-09-22T06:10:58.485Z,6.53
2022-09-22T06:13:24.780Z,5.82
2022-09-22T06:15:51.056Z,6.15
2022-09-22T06:18:24.860Z,8.35
2022-09-22T06:20:51.786Z,7.03
2022-09-22T06:23:18.049Z,6.75
2022-09-22T06:25:44.366Z,6.13
2022-09-22T06:28:11.831Z,5.65
2022-09-22T06:30:41.323Z,6.32
2022-09-22T06:33:07.980Z,5.20
2022-09-22T06:35:37.745Z,4.97
2022-09-22T06:38:05.746Z,4.78
2022-09-22T06:40:32.344Z,4.63
2022-09-22T06:42:59.529Z,4.55
2022-09-22T06:45:26.848Z,4.03
2022-09-22T06:48:05.231Z,4.63
2022-09-22T06:50:33.918Z,5.10
2022-09-22T06:53:01.011Z,4.97
2022-09-22T06:55:28.169Z,4.97
2022-09-22T06:57:55.565Z,4.40
2022-09-22T07:00:21.859Z,4.38
2022-09-22T07:02:48.454Z,3.75
2022-09-22T07:05:18.569Z,4.30
2022-09-22T07:07:44.810Z,4.70
2022-09-22T07:10:11.109Z,4.53
2022-09-22T07:12:37.402Z,4.50
2022-09-22T07:15:04.147Z,4.13
2022-09-22T07:17:31.755Z,4.10
2022-09-22T07:19:58.343Z,4.40
2022-09-22T07:22:26.806Z,5.07
2022-09-22T07:24:53.052Z,4.53
2022-09-22T07:27:26.110Z,3.90
2022-09-22T07:29:54.142Z,4.50
2022-09-22T07:32:21.921Z,4.47
2022-09-22T07:34:49.123Z,3.75
2022-09-22T07:37:15.805Z,4.22
2022-09-22T07:39:48.136Z,4.80
2022-09-22T07:42:14.398Z,4.72
2022-09-22T07:44:59.496Z,3.55
2022-09-22T07:47:44.219Z,3.90
2022-09-22T07:50:10.609Z,3.70
2022-09-22T07:52:36.858Z,4.10
2022-09-22T07:55:03.810Z,3.85
2022-09-22T07:57:33.305Z,4.50
2022-09-22T07:59:59.986Z,4.23
2022-09-22T08:02:28.689Z,3.90
2022-09-22T08:05:02.806Z,3.08
2022-09-22T08:07:31.334Z,3.28
2022-09-22T08:09:58.115Z,3.13
2022-09-22T08:12:24.824Z,4.30
2022-09-22T08:14:53.439Z,3.38
2022-09-22T08:17:19.687Z,3.58
2022-09-22T08:19:46.118Z,3.35
2022-09-22T08:22:12.326Z,3.45
2022-09-22T08:24:38.537Z,3.40
2022-09-22T08:27:04.825Z,3.53
2022-09-22T08:29:31.414Z,3.03
2022-09-22T08:31:57.714Z,3.45
2022-09-22T08:34:23.988Z,3.08
2022-09-22T08:36:50.311Z,3.22
2022-09-22T08:39:17.324Z,4.75
2022-09-22T08:42:07.926Z,3.53
2022-09-22T08:44:39.990Z,2.63
2022-09-22T08:47:06.545Z,2.70
2022-09-22T08:49:55.748Z,2.72
2022-09-22T08:52:22.086Z,2.47
2022-09-22T08:54:48.818Z,2.65
2022-09-22T08:57:39.034Z,2.40
2022-09-22T09:02:44.254Z,3.75
2022-09-22T09:05:24.377Z,3.30
2022-09-22T09:08:00.649Z,2.10
2022-09-22T09:10:37.645Z,3.05
2022-09-22T09:13:28.098Z,3.20
2022-09-22T09:16:00.662Z,3.05
2022-09-22T09:18:34.190Z,2.80
2022-09-22T09:21:02.742Z,2.25
2022-09-22T09:26:20.446Z,3.92
2022-09-22T09:28:57.175Z,1.70
2022-09-22T09:31:30.493Z,1.83
2022-09-22T09:34:07.623Z,1.55
2022-09-22T09:36:34.996Z,1.48
2022-09-22T09:39:09.517Z,1.05
2022-09-22T09:41:36.375Z,1.08
2022-09-22T09:44:03.576Z,1.00
2022-09-22T09:46:29.834Z,1.30
2022-09-22T09:49:01.709Z,1.23
2022-09-22T09:51:28.234Z,1.20
2022-09-22T09:53:55.520Z,1.00
2022-09-22T09:56:29.006Z,0.60
2022-09-22T09:59:13.932Z,1.00
2022-09-22T10:01:41.989Z,0.68
2022-09-22T10:04:27.133Z,0.25
2022-09-22T10:06:53.543Z,0.63
2022-09-22T10:09:24.250Z,0.70
2022-09-22T10:12:00.550Z,0.10
2022-09-22T10:14:29.313Z,0.40
2022-09-22T10:16:55.813Z,0.50
2022-09-22T10:19:27.573Z,0.95
2022-09-22T10:22:14.001Z,0.10
2022-09-22T10:24:40.285Z,1.25
2022-09-22T10:27:07.513Z,0.10
2022-09-22T10:29:33.970Z,0.50
2022-09-22T10:32:12.264Z,0.20
2022-09-22T10:34:40.733Z,0.50
2022-09-22T10:37:10.381Z,0.55
2022-09-22T10:39:40.817Z,0.20
2022-09-22T10:42:14.938Z,0.35
2022-09-22T10:44:45.321Z,0.45
2022-09-22T10:47:27.086Z,0.40
2022-09-22T10:50:17.900Z,0.10
2022-09-22T10:53:04.482Z,0.20
2022-09-22T10:55:34.603Z,0.10
2022-09-22T10:58:08.551Z,0.10
2022-09-22T11:00:38.960Z,0.38
2022-09-22T11:03:18.048Z,0.10
2022-09-22T11:06:16.790Z,0.22
2022-09-22T11:09:10.833Z,0.55
2022-09-22T11:12:12.665Z,0.30
2022-09-22T11:14:51.203Z,0.50
2022-09-22T11:17:39.066Z,0.30
2022-09-22T11:20:18.185Z,0.28
2022-09-22T11:22:55.282Z,0.17
2022-09-22T11:25:22.329Z,0.10
2022-09-22T11:28:00.686Z,0.13
2022-09-22T11:30:31.778Z,0.30
2022-09-22T11:33:13.205Z,0.40
2022-09-22T11:36:08.836Z,0.22
2022-09-22T11:38:53.925Z,0.00
2022-09-22T11:41:39.056Z,0.28
2022-09-22T11:44:24.165Z,0.10
2022-09-22T11:46:54.758Z,2.97
2022-09-22T11:49:39.952Z,0.28
2022-09-22T11:52:19.808Z,0.00
2022-09-22T11:55:02.352Z,1.23
2022-09-22T11:57:31.619Z,0.10
2022-09-22T12:00:17.283Z,0.32
2022-09-22T12:02:46.455Z,0.20
2022-09-22T12:05:15.519Z,0.10
2022-09-22T12:07:55.584Z,0.28
2022-09-22T12:10:34.147Z,0.00
2022-09-22T12:13:01.424Z,0.03
2022-09-22T12:15:34.531Z,0.00
2022-09-22T12:18:05.624Z,0.00
2022-09-22T12:20:42.678Z,0.00
2022-09-22T12:23:19.974Z,0.00
2022-09-22T12:25:49.707Z,0.10
2022-09-22T12:28:17.664Z,0.10
2022-09-22T12:30:51.783Z,0.10
2022-09-22T12:33:18.166Z,0.10
2022-09-22T12:35:52.072Z,0.15
2022-09-22T12:38:20.384Z,0.10
2022-09-22T12:40:48.325Z,0.00
2022-09-22T12:43:17.886Z,0.10
2022-09-22T12:45:44.287Z,0.10
2022-09-22T12:48:16.509Z,0.30
2022-09-22T12:50:43.822Z,0.20
2022-09-22T12:53:22.387Z,0.10
2022-09-22T12:55:49.482Z,0.00
2022-09-22T12:58:18.460Z,0.65
2022-09-22T13:00:45.153Z,0.10
2022-09-22T13:03:26.558Z,0.60
2022-09-22T13:05:53.836Z,0.10
2022-09-22T13:08:25.156Z,0.20
2022-09-22T13:10:53.733Z,0.00
2022-09-22T13:13:24.058Z,0.20
2022-09-22T13:16:00.649Z,0.05
2022-09-22T13:18:32.941Z,0.15
2022-09-22T13:21:00.254Z,0.00
2022-09-22T13:23:26.679Z,0.32
2022-09-22T13:25:53.327Z,0.10
2022-09-22T13:28:25.444Z,0.05
2022-09-22T13:31:05.915Z,0.00
2022-09-22T13:33:34.086Z,0.10
2022-09-22T13:36:05.329Z,0.38
2022-09-22T13:38:41.635Z,0.00
2022-09-22T13:41:17.850Z,0.00
2022-09-22T13:43:45.670Z,0.15
2022-09-22T13:46:18.731Z,0.10
2022-09-22T13:48:45.034Z,0.45
2022-09-22T13:51:14.856Z,0.00
2022-09-22T13:53:44.628Z,0.20
2022-09-22T13:58:39.516Z,0.00
2022-09-22T14:01:14.548Z,0.10
2022-09-22T14:03:41.408Z,0.65
2022-09-22T14:06:27.930Z,0.00
2022-09-22T14:08:55.492Z,0.43
2022-09-22T14:11:27.336Z,0.10
2022-09-22T14:13:53.965Z,0.10
2022-09-22T14:16:32.488Z,0.00
2022-09-22T14:19:03.666Z,0.10
2022-09-22T14:21:33.394Z,0.20
2022-09-22T14:23:59.896Z,0.20
2022-09-22T14:26:49.269Z,0.10
2022-09-22T14:29:21.745Z,0.08
2022-09-22T14:31:51.533Z,0.20
2022-09-22T14:34:21.534Z,0.00
2022-09-22T14:36:49.037Z,0.10
2022-09-22T14:39:18.061Z,0.20
2022-09-22T14:41:50.167Z,0.10
2022-09-22T14:44:26.663Z,0.22
2022-09-22T14:46:54.959Z,0.00
2022-09-22T14:49:30.429Z,0.20
2022-09-22T14:51:58.640Z,0.10
2022-09-22T14:54:25.033Z,0.00
2022-09-22T14:56:52.168Z,0.20
2022-09-22T14:59:36.949Z,0.10
2022-09-22T15:02:21.774Z,0.00
2022-09-22T15:04:51.846Z,0.63
2022-09-22T15:07:29.000Z,0.52
2022-09-22T15:09:59.518Z,0.00
2022-09-22T15:12:38.204Z,0.10
2022-09-22T15:15:16.458Z,0.00
2022-09-22T15:18:02.105Z,0.10
2022-09-22T15:20:33.192Z,0.00
2022-09-22T15:22:59.429Z,0.00
2022-09-22T15:25:25.711Z,0.05
2022-09-22T15:27:53.419Z,0.10
2022-09-22T15:30:20.987Z,0.28
2022-09-22T15:32:48.187Z,0.00
2022-09-22T15:35:16.895Z,0.10
2022-09-22T15:37:46.911Z,0.00
2022-09-22T15:40:17.756Z,0.05
2022-09-22T15:42:56.893Z,0.00
2022-09-22T15:45:31.664Z,0.00
2022-09-22T15:47:57.956Z,0.00
2022-09-22T15:50:25.656Z,0.10
2022-09-22T15:52:51.908Z,0.00
2022-09-22T15:55:19.646Z,0.57
2022-09-22T15:57:47.396Z,0.00
2022-09-22T16:00:14.762Z,0.10
2022-09-22T16:02:42.485Z,0.10
2022-09-22T16:05:09.472Z,0.00
2022-09-22T16:07:38.739Z,0.20
2022-09-22T16:10:05.212Z,0.00
2022-09-22T16:12:31.461Z,0.00
2022-09-22T16:14:57.709Z,0.00
2022-09-22T16:17:24.780Z,0.00
2022-09-22T16:19:51.042Z,0.10
2022-09-22T16:22:17.382Z,0.00
2022-09-22T16:24:44.077Z,0.00
2022-09-22T16:27:10.319Z,0.05
2022-09-22T16:29:37.485Z,0.15
2022-09-22T16:32:04.234Z,0.15
2022-09-22T16:34:30.490Z,0.10
2022-09-22T16:36:57.079Z,0.47
2022-09-22T16:39:23.351Z,0.10
2022-09-22T16:41:49.590Z,0.50
2022-09-22T16:44:16.051Z,0.75
2022-09-22T16:46:42.391Z,0.10
2022-09-22T16:49:13.698Z,0.00
2022-09-22T16:51:43.816Z,0.30
2022-09-22T16:54:14.223Z,0.30
2022-09-22T16:56:43.134Z,0.20
2022-09-22T16:59:09.635Z,0.65
2022-09-22T17:01:37.442Z,0.82
2022-09-22T17:04:04.614Z,0.95
2022-09-22T17:06:31.738Z,1.08
2022-09-22T17:08:58.702Z,0.47
2022-09-22T17:11:29.498Z,4.22
2022-09-22T17:14:01.449Z,0.82
2022-09-22T17:16:30.068Z,0.88
2022-09-22T17:19:05.570Z,0.68
2022-09-22T17:21:34.437Z,0.82
2022-09-22T17:24:01.035Z,0.85
2022-09-22T17:26:28.701Z,0.68
2022-09-22T17:28:55.058Z,1.27
2022-09-22T17:31:23.561Z,1.08
2022-09-22T17:33:52.353Z,0.50
2022-09-22T17:36:20.587Z,1.02
2022-09-22T17:38:48.186Z,2.38
2022-09-22T17:41:14.871Z,0.95
2022-09-22T17:43:43.810Z,0.95
2022-09-22T17:46:14.349Z,0.57
2022-09-22T17:48:59.311Z,1.17
2022-09-22T17:51:38.503Z,0.80
2022-09-22T17:54:34.168Z,0.75
2022-09-22T17:57:00.390Z,0.80
2022-09-22T17:59:26.640Z,0.85
2022-09-22T18:01:53.683Z,0.98
2022-09-22T18:04:20.023Z,1.10
2022-09-22T18:06:46.435Z,1.05
2022-09-22T18:09:12.702Z,1.23
2022-09-22T18:11:42.813Z,2.00
2022-09-22T18:14:10.026Z,1.75
2022-09-22T18:16:36.637Z,1.83
2022-09-22T18:19:05.633Z,1.13
2022-09-22T18:21:35.770Z,1.85
2022-09-22T18:24:02.498Z,3.08
2022-09-22T18:26:38.175Z,3.35
2022-09-22T18:29:10.069Z,1.98
2022-09-22T18:31:39.372Z,2.42
2022-09-22T18:34:08.521Z,2.35
2022-09-22T18:36:35.091Z,2.28
2022-09-22T18:39:01.761Z,2.08
2022-09-22T18:41:28.691Z,2.38
2022-09-22T18:43:55.142Z,2.03
2022-09-22T18:46:21.688Z,2.00
2022-09-22T18:49:05.879Z,3.05
2022-09-22T18:51:32.753Z,3.10
2022-09-22T18:54:06.416Z,1.92
2022-09-22T18:56:33.262Z,3.05
2022-09-22T18:58:59.505Z,4.00
2022-09-22T19:01:25.862Z,4.45
2022-09-22T19:03:52.209Z,3.45
2022-09-22T19:06:18.988Z,3.67
2022-09-22T19:08:45.234Z,4.68
2022-09-22T19:11:11.721Z,4.22
2022-09-22T19:13:39.475Z,5.68
2022-09-22T19:16:06.148Z,4.53
2022-09-22T19:18:32.444Z,3.67
2022-09-22T19:21:03.868Z,3.28
2022-09-22T19:23:32.414Z,4.03
2022-09-22T19:25:59.538Z,3.30
2022-09-22T19:28:25.837Z,3.97
2022-09-22T19:30:52.124Z,3.53
2022-09-22T19:33:18.402Z,3.20
2022-09-22T19:35:44.730Z,2.58
2022-09-22T19:38:10.981Z,3.42
2022-09-22T19:40:37.294Z,3.17
2022-09-22T19:43:03.591Z,3.25
2022-09-22T19:45:30.402Z,3.00
2022-09-22T19:47:58.039Z,3.33
2022-09-22T19:50:27.416Z,3.72
2022-09-22T19:52:53.710Z,2.43
2022-09-22T19:55:21.235Z,3.25
2022-09-22T19:57:48.553Z,3.53
2022-09-22T20:00:25.731Z,3.25
2022-09-22T20:02:58.304Z,3.60
2022-09-22T20:05:27.069Z,3.17
2022-09-22T20:07:54.008Z,3.63
2022-09-22T20:10:22.563Z,3.63
2022-09-22T20:12:49.429Z,3.47
2022-09-22T20:15:16.051Z,3.72
2022-09-22T20:17:46.460Z,4.22
2022-09-22T20:22:40.865Z,3.83
2022-09-22T20:25:16.716Z,4.45
2022-09-22T20:27:43.139Z,5.00
2022-09-22T20:30:10.106Z,4.13
2022-09-22T20:32:36.782Z,5.00
2022-09-22T20:35:03.232Z,3.63
2022-09-22T20:37:31.845Z,4.47
2022-09-22T20:39:58.084Z,4.25
2022-09-22T20:42:24.321Z,4.05
2022-09-22T20:44:50.574Z,3.95
2022-09-22T20:47:17.946Z,4.10
2022-09-22T20:49:49.441Z,4.65
2022-09-22T20:52:19.655Z,4.22
2022-09-22T20:54:46.335Z,4.22
2022-09-22T20:57:13.983Z,5.00
2022-09-22T20:59:40.258Z,4.00
2022-09-22T21:02:07.156Z,5.07
2022-09-22T21:04:33.773Z,5.25
2022-09-22T21:07:00.026Z,4.82
2022-09-22T21:09:44.705Z,3.63
2022-09-22T21:12:12.499Z,5.28
2022-09-22T21:14:38.863Z,4.45
2022-09-22T21:17:08.601Z,4.85
2022-09-22T21:19:36.406Z,4.38
2022-09-22T21:22:02.830Z,3.90
2022-09-22T21:24:29.844Z,3.40
2022-09-22T21:26:56.093Z,3.70
2022-09-22T21:29:22.592Z,3.50
2022-09-22T21:31:51.772Z,3.88
2022-09-22T21:34:18.320Z,4.88
2022-09-22T21:36:45.164Z,3.88
2022-09-22T21:39:11.445Z,3.40
2022-09-22T21:41:37.696Z,4.28
2022-09-22T21:44:07.233Z,4.28
2022-09-22T21:46:36.067Z,3.45
2022-09-22T21:49:03.468Z,3.58
2022-09-22T21:51:34.206Z,3.58
2022-09-22T21:54:04.388Z,4.38
2022-09-22T21:56:32.854Z,4.78
2022-09-22T21:58:59.510Z,3.97
2022-09-22T22:01:26.917Z,3.67
2022-09-22T22:03:54.031Z,4.07
2022-09-22T22:06:30.398Z,3.65
2022-09-22T22:09:00.738Z,4.00
2022-09-22T22:11:29.494Z,4.07
2022-09-22T22:13:56.272Z,4.13
2022-09-22T22:16:24.253Z,3.63
2022-09-22T22:18:50.894Z,3.92
2022-09-22T22:21:18.954Z,4.15
2022-09-22T22:23:46.411Z,3.92
2022-09-22T22:26:14.438Z,4.13
2022-09-22T22:28:40.973Z,3.55
2022-09-22T22:31:08.937Z,4.00
2022-09-22T22:33:36.718Z,4.85
2022-09-22T22:36:03.827Z,4.25
2022-09-22T22:38:33.258Z,4.53
2022-09-22T22:41:10.666Z,4.28
2022-09-22T22:43:37.524Z,4.32
2022-09-22T22:46:05.063Z,3.83
2022-09-22T22:48:31.666Z,3.92
2022-09-22T22:50:57.933Z,3.85
2022-09-22T22:53:24.818Z,3.08
2022-09-22T22:55:58.323Z,3.67
2022-09-22T22:58:27.286Z,4.03
2022-09-22T23:00:59.754Z,3.60
2022-09-22T23:03:26.758Z,4.45
2022-09-22T23:05:57.073Z,4.50
2022-09-22T23:08:23.343Z,4.43
2022-09-22T23:10:49.924Z,4.20
2022-09-22T23:13:16.539Z,4.40
2022-09-22T23:15:44.599Z,5.05
2022-09-22T23:18:10.930Z,4.03
2022-09-22T23:20:37.191Z,4.22
2022-09-22T23:23:03.570Z,3.58
2022-09-22T23:25:29.823Z,4.28
2022-09-22T23:27:56.102Z,4.47
2022-09-22T23:30:22.428Z,4.20
2022-09-22T23:32:48.750Z,5.85
2022-09-22T23:35:15.026Z,4.45
2022-09-22T23:37:41.350Z,4.80
2022-09-22T23:40:08.024Z,5.15
2022-09-22T23:42:34.326Z,5.47
2022-09-22T23:45:00.651Z,7.93
2022-09-22T23:47:26.930Z,6.10
2022-09-22T23:49:53.424Z,5.63
2022-09-22T23:52:19.707Z,5.63
2022-09-22T23:54:45.958Z,5.88
2022-09-22T23:57:12.205Z,5.32
2022-09-22T23:59:38.634Z,5.50
